createdAt,value
2023-03-01T00:01:52.822Z,72.38
2023-03-01T00:04:42.117Z,72.39
2023-03-01T00:07:32.984Z,72.35
2023-03-01T00:10:23.905Z,72.71
2023-03-01T00:13:07.303Z,72.72
2023-03-01T00:15:58.141Z,72.41
2023-03-01T00:18:48.553Z,72.44
2023-03-01T00:21:39.457Z,72.66
2023-03-01T00:24:20.213Z,72.50
2023-03-01T00:27:11.402Z,72.58
2023-03-01T00:30:02.446Z,72.53
2023-03-01T00:32:53.208Z,72.87
2023-03-01T00:35:44.133Z,72.94
2023-03-01T00:38:39.320Z,73.07
2023-03-01T00:41:30.601Z,73.18
2023-03-01T00:44:21.439Z,73.15
2023-03-01T00:47:12.337Z,73.15
2023-03-01T00:49:53.169Z,72.98
2023-03-01T00:52:43.963Z,73.13
2023-03-01T00:55:44.786Z,73.08
2023-03-01T00:58:18.560Z,73.06
2023-03-01T01:01:03.146Z,72.77
2023-03-01T01:03:57.205Z,73.07
2023-03-01T01:06:49.009Z,72.84
2023-03-01T01:09:39.535Z,72.84
2023-03-01T01:12:21.389Z,73.00
2023-03-01T01:15:02.568Z,72.79
2023-03-01T01:17:53.328Z,72.56
2023-03-01T01:20:44.105Z,72.54
2023-03-01T01:23:35.317Z,72.69
2023-03-01T01:26:28.547Z,72.54
2023-03-01T01:29:13.332Z,72.69
2023-03-01T01:32:04.163Z,72.47
2023-03-01T01:34:55.104Z,72.53
2023-03-01T01:37:45.958Z,72.17
2023-03-01T01:40:36.750Z,72.27
2023-03-01T01:43:30.211Z,72.06
2023-03-01T01:46:29.454Z,71.97
2023-03-01T01:49:30.412Z,71.84
2023-03-01T01:52:26.499Z,71.88
2023-03-01T01:55:22.519Z,72.18
2023-03-01T01:58:10.364Z,72.04
2023-03-01T02:01:02.797Z,72.12
2023-03-01T02:03:38.865Z,72.07
2023-03-01T02:06:33.836Z,72.08
2023-03-01T02:09:20.892Z,71.95
2023-03-01T02:12:12.093Z,71.89
2023-03-01T02:15:02.808Z,71.98
2023-03-01T02:17:54.724Z,72.16
2023-03-01T02:20:53.143Z,71.90
2023-03-01T02:23:44.506Z,71.96
2023-03-01T02:26:43.246Z,72.30
2023-03-01T02:29:34.178Z,72.38
2023-03-01T02:32:08.918Z,72.29
2023-03-01T02:34:59.889Z,72.51
2023-03-01T02:37:52.287Z,73.01
2023-03-01T02:40:45.835Z,72.80
2023-03-01T02:43:31.203Z,73.17
2023-03-01T02:46:21.070Z,72.95
2023-03-01T02:48:57.546Z,72.89
2023-03-01T02:51:54.839Z,72.70
2023-03-01T02:54:50.802Z,72.79
2023-03-01T02:57:34.127Z,72.80
2023-03-01T03:00:28.866Z,72.71
2023-03-01T03:03:22.179Z,72.90
2023-03-01T03:06:13.086Z,72.82
2023-03-01T03:09:04.168Z,72.49
2023-03-01T03:11:54.938Z,72.49
2023-03-01T03:14:45.678Z,72.50
2023-03-01T03:17:29.507Z,72.65
2023-03-01T03:20:22.044Z,72.70
2023-03-01T03:23:13.172Z,72.94
2023-03-01T03:25:46.362Z,73.13
2023-03-01T03:28:40.956Z,73.46
2023-03-01T03:31:23.792Z,73.80
2023-03-01T03:33:57.820Z,73.92
2023-03-01T03:36:39.565Z,74.09
2023-03-01T03:39:35.813Z,74.09
2023-03-01T03:42:26.673Z,73.98
2023-03-01T03:45:17.719Z,74.20
2023-03-01T03:48:11.533Z,74.18
2023-03-01T03:50:54.180Z,74.87
2023-03-01T03:53:45.444Z,74.92
2023-03-01T03:56:28.732Z,75.43
2023-03-01T03:59:19.720Z,75.51
2023-03-01T04:02:00.502Z,75.64
2023-03-01T04:04:51.468Z,76.11
2023-03-01T04:07:33.456Z,76.29
2023-03-01T04:10:24.203Z,76.46
2023-03-01T04:13:17.281Z,76.24
2023-03-01T04:16:08.860Z,76.19
2023-03-01T04:19:00.646Z,75.92
2023-03-01T04:21:51.508Z,76.00
2023-03-01T04:24:42.215Z,76.20
2023-03-01T04:27:33.069Z,76.18
2023-03-01T04:30:26.382Z,76.71
2023-03-01T04:33:17.199Z,76.45
2023-03-01T04:35:58.843Z,76.66
2023-03-01T04:38:49.300Z,76.38
2023-03-01T04:41:31.041Z,76.82
2023-03-01T04:44:15.647Z,76.71
2023-03-01T04:46:57.668Z,76.71
2023-03-01T04:49:48.555Z,77.03
2023-03-01T04:52:39.802Z,76.73
2023-03-01T04:55:31.351Z,76.61
2023-03-01T04:58:06.864Z,76.65
2023-03-01T05:00:37.722Z,76.59
2023-03-01T05:03:29.133Z,76.38
2023-03-01T05:06:23.325Z,76.13
2023-03-01T05:09:14.284Z,76.18
2023-03-01T05:12:05.281Z,76.43
2023-03-01T05:14:56.031Z,76.53
2023-03-01T05:17:47.150Z,76.85
2023-03-01T05:20:38.626Z,76.56
2023-03-01T05:23:29.382Z,76.57
2023-03-01T05:26:39.683Z,76.83
2023-03-01T05:29:35.826Z,76.41
2023-03-01T05:32:26.914Z,76.32
2023-03-01T05:35:09.196Z,76.19
2023-03-01T05:38:00.157Z,75.76
2023-03-01T05:40:51.959Z,75.64
2023-03-01T05:43:44.646Z,75.89
2023-03-01T05:46:35.513Z,75.58
2023-03-01T05:49:26.910Z,75.26
2023-03-01T05:52:17.648Z,75.20
2023-03-01T05:55:10.265Z,75.43
2023-03-01T05:58:03.804Z,75.31
2023-03-01T06:00:37.976Z,75.08
2023-03-01T06:03:29.300Z,75.18
2023-03-01T06:06:20.233Z,74.89
2023-03-01T06:09:11.243Z,75.09
2023-03-01T06:12:01.977Z,75.19
2023-03-01T06:14:42.717Z,75.04
2023-03-01T06:17:38.324Z,74.78
2023-03-01T06:20:30.896Z,74.72
2023-03-01T06:23:22.319Z,74.82
2023-03-01T06:26:13.074Z,74.77
2023-03-01T06:29:03.881Z,74.84
2023-03-01T06:31:48.611Z,74.54
2023-03-01T06:34:39.504Z,74.49
2023-03-01T06:37:10.681Z,74.81
2023-03-01T06:39:54.252Z,74.38
2023-03-01T06:42:50.055Z,74.31
2023-03-01T06:45:44.068Z,74.07
2023-03-01T06:48:35.024Z,73.92
2023-03-01T06:51:26.355Z,73.82
2023-03-01T06:54:10.167Z,73.64
2023-03-01T06:57:00.960Z,73.50
2023-03-01T06:59:52.159Z,73.26
2023-03-01T07:02:43.182Z,72.98
2023-03-01T07:05:35.810Z,72.97
2023-03-01T07:08:26.878Z,72.65
2023-03-01T07:11:18.768Z,72.28
2023-03-01T07:14:09.777Z,72.43
2023-03-01T07:17:00.594Z,71.64
2023-03-01T07:19:51.484Z,71.65
2023-03-01T07:25:31.580Z,71.25
2023-03-01T07:28:22.618Z,71.06
2023-03-01T07:31:06.410Z,70.59
2023-03-01T07:33:37.540Z,71.07
2023-03-01T07:36:29.007Z,70.77
2023-03-01T07:39:14.799Z,70.05
2023-03-01T07:41:56.633Z,70.50
2023-03-01T07:44:37.633Z,70.05
2023-03-01T07:47:21.240Z,70.13
2023-03-01T07:50:03.609Z,69.68
2023-03-01T07:52:37.708Z,69.78
2023-03-01T07:55:28.882Z,69.00
2023-03-01T07:58:09.915Z,69.08
2023-03-01T08:01:05.089Z,69.24
2023-03-01T08:03:50.272Z,68.95
2023-03-01T08:06:23.912Z,68.74
2023-03-01T08:09:15.353Z,68.52
2023-03-01T08:12:04.166Z,68.26
2023-03-01T08:14:35.252Z,68.29
2023-03-01T08:17:08.415Z,67.93
2023-03-01T08:19:59.860Z,67.61
2023-03-01T08:22:33.937Z,67.22
2023-03-01T08:25:06.504Z,66.73
2023-03-01T08:27:37.152Z,65.89
2023-03-01T08:30:19.746Z,66.27
2023-03-01T08:32:54.249Z,65.29
2023-03-01T08:35:29.927Z,65.61
2023-03-01T08:38:03.355Z,65.27
2023-03-01T08:40:45.114Z,64.75
2023-03-01T08:43:26.523Z,64.71
2023-03-01T08:45:57.645Z,64.49
2023-03-01T08:48:29.441Z,64.57
2023-03-01T08:51:18.909Z,64.54
2023-03-01T08:53:59.848Z,63.54
2023-03-01T08:56:51.192Z,62.74
2023-03-01T08:59:38.169Z,61.90
2023-03-01T09:02:17.956Z,61.98
2023-03-01T09:04:59.080Z,61.67
2023-03-01T09:07:51.425Z,61.46
2023-03-01T09:10:34.233Z,60.91
2023-03-01T09:13:16.523Z,59.37
2023-03-01T09:15:58.452Z,59.97
2023-03-01T09:18:53.365Z,59.94
2023-03-01T09:21:53.537Z,59.24
2023-03-01T09:24:25.916Z,58.63
2023-03-01T09:27:09.721Z,58.01
2023-03-01T09:29:47.350Z,57.15
2023-03-01T09:32:48.981Z,56.61
2023-03-01T09:35:29.781Z,57.41
2023-03-01T09:38:25.963Z,56.89
2023-03-01T09:41:12.807Z,56.20
2023-03-01T09:43:56.648Z,55.75
2023-03-01T09:46:50.959Z,54.71
2023-03-01T09:49:39.897Z,55.84
2023-03-01T09:52:26.480Z,55.20
2023-03-01T09:55:33.330Z,54.66
2023-03-01T09:58:45.526Z,54.59
2023-03-01T10:01:47.537Z,54.16
2023-03-01T10:04:55.753Z,53.35
2023-03-01T10:07:57.932Z,53.89
2023-03-01T10:10:46.576Z,53.06
2023-03-01T10:13:46.495Z,53.65
2023-03-01T10:16:32.828Z,53.95
2023-03-01T10:19:19.477Z,53.43
2023-03-01T10:22:00.371Z,52.76
2023-03-01T10:24:38.421Z,52.54
2023-03-01T10:27:17.021Z,52.27
2023-03-01T10:30:17.566Z,52.52
2023-03-01T10:32:55.676Z,51.84
2023-03-01T10:35:35.232Z,52.10
2023-03-01T10:38:14.399Z,51.85
2023-03-01T10:40:58.058Z,52.52
2023-03-01T10:43:49.143Z,51.99
2023-03-01T10:46:33.256Z,51.38
2023-03-01T10:49:19.148Z,52.21
2023-03-01T10:52:23.457Z,51.10
2023-03-01T10:55:00.756Z,50.89
2023-03-01T10:57:43.026Z,51.18
2023-03-01T11:00:35.380Z,51.40
2023-03-01T11:03:21.240Z,51.49
2023-03-01T11:06:21.697Z,50.83
2023-03-01T11:09:17.942Z,50.82
2023-03-01T11:11:56.499Z,50.01
2023-03-01T11:14:36.125Z,49.38
2023-03-01T11:17:22.601Z,49.90
2023-03-01T11:20:08.808Z,49.75
2023-03-01T11:22:49.071Z,49.56
2023-03-01T11:25:38.140Z,50.28
2023-03-01T11:28:31.876Z,49.87
2023-03-01T11:31:34.498Z,49.22
2023-03-01T11:34:13.421Z,49.28
2023-03-01T11:37:13.055Z,48.65
2023-03-01T11:39:55.310Z,48.83
2023-03-01T11:42:40.105Z,48.40
2023-03-01T11:45:14.175Z,48.99
2023-03-01T11:48:22.496Z,48.80
2023-03-01T11:51:00.135Z,48.31
2023-03-01T11:54:16.471Z,47.19
2023-03-01T11:56:59.570Z,47.89
2023-03-01T12:00:11.588Z,47.21
2023-03-01T12:03:27.138Z,47.76
2023-03-01T12:06:26.289Z,47.45
2023-03-01T12:09:33.063Z,47.00
2023-03-01T12:12:29.481Z,45.87
2023-03-01T12:15:24.627Z,44.93
2023-03-01T12:18:27.307Z,44.93
2023-03-01T12:21:07.756Z,43.61
2023-03-01T12:23:53.237Z,43.58
2023-03-01T12:26:32.819Z,43.75
2023-03-01T12:29:21.740Z,42.93
2023-03-01T12:32:19.216Z,42.89
2023-03-01T12:35:15.669Z,41.59
2023-03-01T12:38:02.378Z,41.18
2023-03-01T12:40:55.741Z,41.34
2023-03-01T12:43:44.378Z,39.95
2023-03-01T12:46:23.361Z,40.51
2023-03-01T12:49:07.918Z,39.43
2023-03-01T12:51:40.358Z,39.94
2023-03-01T12:54:18.973Z,38.16
2023-03-01T12:56:53.580Z,37.83
2023-03-01T12:59:39.712Z,38.61
2023-03-01T13:02:21.435Z,37.31
2023-03-01T13:05:19.261Z,38.13
2023-03-01T13:08:01.401Z,37.72
2023-03-01T13:10:38.758Z,36.48
2023-03-01T13:13:23.676Z,37.43
2023-03-01T13:15:55.140Z,35.40
2023-03-01T13:18:36.804Z,35.01
2023-03-01T13:21:08.285Z,34.96
2023-03-01T13:23:38.906Z,35.62
2023-03-01T13:26:18.782Z,35.45
2023-03-01T13:28:56.793Z,35.40
2023-03-01T13:32:02.920Z,34.97
2023-03-01T13:34:51.293Z,34.56
2023-03-01T13:37:38.503Z,34.59
2023-03-01T13:40:59.982Z,35.02
2023-03-01T13:43:36.976Z,34.04
2023-03-01T13:46:19.200Z,33.58
2023-03-01T13:48:55.470Z,32.38
2023-03-01T13:51:28.767Z,32.29
2023-03-01T13:54:01.117Z,33.57
2023-03-01T13:56:38.990Z,32.82
2023-03-01T13:59:15.426Z,33.26
2023-03-01T14:01:53.861Z,32.66
2023-03-01T14:04:27.916Z,32.08
2023-03-01T14:10:04.172Z,32.59
2023-03-01T14:12:47.200Z,31.84
2023-03-01T14:15:24.797Z,32.14
2023-03-01T14:18:06.568Z,31.70
2023-03-01T14:20:43.456Z,32.50
2023-03-01T14:23:17.025Z,32.09
2023-03-01T14:25:53.361Z,31.97
2023-03-01T14:28:27.416Z,33.07
2023-03-01T14:30:59.659Z,31.93
2023-03-01T14:33:34.297Z,32.45
2023-03-01T14:36:08.061Z,32.83
2023-03-01T14:38:41.014Z,32.04
2023-03-01T14:41:16.601Z,32.33
2023-03-01T14:43:52.205Z,32.15
2023-03-01T14:46:28.103Z,32.34
2023-03-01T14:49:04.359Z,32.74
2023-03-01T14:51:40.171Z,32.35
2023-03-01T14:54:23.137Z,32.32
2023-03-01T14:56:55.257Z,32.45
2023-03-01T14:59:26.987Z,32.02
2023-03-01T15:01:59.968Z,32.56
2023-03-01T15:04:34.929Z,33.21
2023-03-01T15:07:06.910Z,33.45
2023-03-01T15:09:38.563Z,34.21
2023-03-01T15:12:45.753Z,34.27
2023-03-01T15:15:47.387Z,34.00
2023-03-01T15:18:28.637Z,34.72
2023-03-01T15:21:07.255Z,34.78
2023-03-01T15:23:41.382Z,34.64
2023-03-01T15:26:27.877Z,35.09
2023-03-01T15:29:01.022Z,35.25
2023-03-01T15:31:36.322Z,35.37
2023-03-01T15:34:24.442Z,35.22
2023-03-01T15:36:57.157Z,35.31
2023-03-01T15:39:39.437Z,35.41
2023-03-01T15:42:13.398Z,34.79
2023-03-01T15:44:46.185Z,34.44
2023-03-01T15:47:32.906Z,33.98
2023-03-01T15:50:04.336Z,34.40
2023-03-01T15:52:41.295Z,34.54
2023-03-01T15:55:20.029Z,34.39
2023-03-01T15:57:52.317Z,34.64
2023-03-01T16:00:24.372Z,34.12
2023-03-01T16:02:55.425Z,34.72
2023-03-01T16:05:28.713Z,34.38
2023-03-01T16:07:59.558Z,34.97
2023-03-01T16:10:31.045Z,34.99
2023-03-01T16:13:02.158Z,35.74
2023-03-01T16:15:36.873Z,36.45
2023-03-01T16:18:09.055Z,37.19
2023-03-01T16:20:43.371Z,38.23
2023-03-01T16:23:15.504Z,38.76
2023-03-01T16:25:46.373Z,39.04
2023-03-01T16:28:17.196Z,39.09
2023-03-01T16:31:08.276Z,39.89
2023-03-01T16:33:39.980Z,40.60
2023-03-01T16:36:15.102Z,40.86
2023-03-01T16:38:49.519Z,41.06
2023-03-01T16:41:39.656Z,41.70
2023-03-01T16:44:31.631Z,42.13
2023-03-01T16:47:05.615Z,42.69
2023-03-01T16:49:38.643Z,42.89
2023-03-01T16:52:29.809Z,43.69
2023-03-01T16:55:00.739Z,43.81
2023-03-01T16:57:35.759Z,43.92
2023-03-01T17:00:08.674Z,44.98
2023-03-01T17:02:42.202Z,45.13
2023-03-01T17:05:13.914Z,45.37
2023-03-01T17:08:04.826Z,46.20
2023-03-01T17:10:45.894Z,46.94
2023-03-01T17:13:28.141Z,47.05
2023-03-01T17:16:01.856Z,47.97
2023-03-01T17:18:42.981Z,48.26
2023-03-01T17:21:28.104Z,48.93
2023-03-01T17:24:17.781Z,49.43
2023-03-01T17:27:10.103Z,50.20
2023-03-01T17:29:52.146Z,50.48
2023-03-01T17:32:36.819Z,51.20
2023-03-01T17:35:12.695Z,51.79
2023-03-01T17:38:03.931Z,52.12
2023-03-01T17:40:54.901Z,52.72
2023-03-01T17:43:36.167Z,53.47
2023-03-01T17:46:07.461Z,53.96
2023-03-01T17:48:58.410Z,54.50
2023-03-01T17:51:31.807Z,54.82
2023-03-01T17:54:02.759Z,55.02
2023-03-01T17:56:53.866Z,55.33
2023-03-01T17:59:45.042Z,55.96
2023-03-01T18:02:19.311Z,56.43
2023-03-01T18:05:11.739Z,56.94
2023-03-01T18:07:52.771Z,57.52
2023-03-01T18:10:37.665Z,58.14
2023-03-01T18:13:14.843Z,58.02
2023-03-01T18:16:00.885Z,58.45
2023-03-01T18:18:37.975Z,59.38
2023-03-01T18:21:09.633Z,59.26
2023-03-01T18:23:59.791Z,59.53
2023-03-01T18:26:33.450Z,60.31
2023-03-01T18:29:24.741Z,60.83
2023-03-01T18:32:15.785Z,61.40
2023-03-01T18:34:57.769Z,62.10
2023-03-01T18:37:28.883Z,62.41
2023-03-01T18:40:02.810Z,63.14
2023-03-01T18:42:36.680Z,63.16
2023-03-01T18:45:27.466Z,63.85
2023-03-01T18:48:18.820Z,64.08
2023-03-01T18:50:59.145Z,65.09
2023-03-01T18:53:43.865Z,64.89
2023-03-01T18:56:35.973Z,65.46
2023-03-01T18:59:17.377Z,65.73
2023-03-01T19:01:59.288Z,66.22
2023-03-01T19:04:52.683Z,66.16
2023-03-01T19:07:43.641Z,66.54
2023-03-01T19:10:34.684Z,67.18
2023-03-01T19:13:25.576Z,67.08
2023-03-01T19:16:08.852Z,67.51
2023-03-01T19:19:01.850Z,68.01
2023-03-01T19:22:04.874Z,68.33
2023-03-01T19:24:39.581Z,69.01
2023-03-01T19:27:30.625Z,69.04
2023-03-01T19:30:15.931Z,69.45
2023-03-01T19:33:00.313Z,69.72
2023-03-01T19:35:51.585Z,69.83
2023-03-01T19:38:33.735Z,70.13
2023-03-01T19:41:10.529Z,70.98
2023-03-01T19:43:55.035Z,70.68
2023-03-01T19:46:46.116Z,70.81
2023-03-01T19:49:38.301Z,71.07
2023-03-01T19:52:20.338Z,70.99
2023-03-01T19:55:12.907Z,70.99
2023-03-01T19:57:48.709Z,70.85
2023-03-01T20:00:25.104Z,70.61
2023-03-01T20:03:16.306Z,70.51
2023-03-01T20:06:14.153Z,70.16
2023-03-01T20:09:19.307Z,70.38
2023-03-01T20:12:11.919Z,70.34
2023-03-01T20:14:55.574Z,70.44
2023-03-01T20:17:39.544Z,70.59
2023-03-01T20:20:30.731Z,70.47
2023-03-01T20:23:15.642Z,70.66
2023-03-01T20:26:09.525Z,70.62
2023-03-01T20:28:43.929Z,70.74
2023-03-01T20:31:35.265Z,70.79
2023-03-01T20:34:26.240Z,71.42
2023-03-01T20:37:17.361Z,71.85
2023-03-01T20:40:10.812Z,71.95
2023-03-01T20:43:01.844Z,71.29
2023-03-01T20:45:52.808Z,71.14
2023-03-01T20:48:44.863Z,70.60
2023-03-01T20:51:29.332Z,70.20
2023-03-01T20:54:20.241Z,69.29
2023-03-01T20:57:11.094Z,69.39
2023-03-01T21:00:02.053Z,69.25
2023-03-01T21:02:52.922Z,68.91
2023-03-01T21:05:34.942Z,68.64
2023-03-01T21:08:26.535Z,68.64
2023-03-01T21:11:18.456Z,68.18
2023-03-01T21:14:05.285Z,68.51
2023-03-01T21:16:56.212Z,68.56
2023-03-01T21:19:47.691Z,68.44
2023-03-01T21:22:21.450Z,68.16
2023-03-01T21:25:12.584Z,67.99
2023-03-01T21:28:03.426Z,68.09
2023-03-01T21:30:54.356Z,67.74
2023-03-01T21:33:47.861Z,67.88
2023-03-01T21:36:38.788Z,67.90
2023-03-01T21:39:19.719Z,67.68
2023-03-01T21:42:10.549Z,67.85
2023-03-01T21:45:01.480Z,67.42
2023-03-01T21:47:52.364Z,67.31
2023-03-01T21:50:39.777Z,68.10
2023-03-01T21:53:33.589Z,68.16
2023-03-01T21:56:25.876Z,67.87
2023-03-01T21:59:19.050Z,68.01
2023-03-01T22:02:11.761Z,68.29
2023-03-01T22:05:02.778Z,68.35
2023-03-01T22:07:53.658Z,68.08
2023-03-01T22:10:44.666Z,67.82
2023-03-01T22:13:35.650Z,67.72
2023-03-01T22:16:10.464Z,67.97
2023-03-01T22:19:00.622Z,67.66
2023-03-01T22:21:53.950Z,67.41
2023-03-01T22:24:44.904Z,67.53
2023-03-01T22:27:37.361Z,67.32
2023-03-01T22:30:28.547Z,67.63
2023-03-01T22:33:19.949Z,67.53
2023-03-01T22:36:11.562Z,67.69
2023-03-01T22:39:01.970Z,67.71
2023-03-01T22:41:55.121Z,67.50
2023-03-01T22:44:38.700Z,67.68
2023-03-01T22:47:29.956Z,67.55
2023-03-01T22:50:19.952Z,67.53
2023-03-01T22:53:10.800Z,67.66
2023-03-01T22:56:00.255Z,67.67
2023-03-01T22:58:44.641Z,67.79
2023-03-01T23:01:36.292Z,67.68
2023-03-01T23:04:18.267Z,67.72
2023-03-01T23:07:02.746Z,67.67
2023-03-01T23:09:54.220Z,67.51
2023-03-01T23:12:45.089Z,68.13
2023-03-01T23:15:35.868Z,68.06
2023-03-01T23:18:16.832Z,68.48
2023-03-01T23:21:13.251Z,68.56
2023-03-01T23:24:04.200Z,68.44
2023-03-01T23:26:55.313Z,68.68
2023-03-01T23:29:36.700Z,68.90
2023-03-01T23:32:27.621Z,68.88
2023-03-01T23:35:18.757Z,68.60
2023-03-01T23:38:09.612Z,68.89
2023-03-01T23:41:00.445Z,69.32
2023-03-01T23:43:48.703Z,69.55
2023-03-01T23:46:34.710Z,69.38
2023-03-01T23:49:26.096Z,69.45
2023-03-01T23:52:17.425Z,69.42
2023-03-01T23:55:12.703Z,69.49
2023-03-01T23:58:03.971Z,69.27
